Wauneta, NE

11:59 AM MST on December 10, 2016 (GMT -0700)
Imperial Municipal | | Change Station

Elev 3274 ft 40.51 °N, 101.62 °W | Updated 6 minutes ago

Partly Cloudy
Partly Cloudy
27 °F
Feels Like 18 °F
N
9
Wind Variable Wind from SE

Today
High -- | Low -- °F
--% Chance of Precip.
Yesterday
High -- | Low -- °F
Precip. -- in
Pressure 29.98 in
Visibility 10.0 miles
Clouds Few 12000 ft
Windchill 18 °F
Dew Point 21 °F
Humidity 78%
Rainfall 0.00 in
Snow Depth Not available.
6:58 AM 4:18 PM
Waxing Gibbous, 85% visible
METAR KIML 101853Z AUTO 14008KT 10SM FEW120 M03/M06 A2987 RMK AO2 SLP150 T10281061
Pressure 29.98 in
Visibility 10.0 miles
Clouds Few 12000 ft
Windchill 18 °F
Dew Point 21 °F
Humidity 78%
Rainfall 0.00 in
Snow Depth Not available.
6:58 AM 4:18 PM
Waxing Gibbous, 85% visible
METAR KIML 101853Z AUTO 14008KT 10SM FEW120 M03/M06 A2987 RMK AO2 SLP150 T10281061

10-Day Weather Forecast

Almanac

Astronomy

Dec. 10, 2016 Rise Set
Actual Time
Civil Twilight
Nautical Twilight
Astronomical Twilight
Moon
Length of Visible Light
Length of Day
Tomorrow will be .
, % of the Moon is Illuminated

Today's Extremes

State Highs State Lows

Community

WunderPhotos

Upload Photos

1,956,620 photos uploaded!

WunderBlog® & News

Nearby

Air Quality

  Air Quality AQ Index Pollutant
Not available.

Snow Depth

Station Depth Elevation

Earthquake Activity

City Distance Mag. Time & Date
Minimum magnitude displayed is 2.5.

Coastal Water Temperatures

Place Temperature

Stations

Nearby Weather Stations

Station Location Temp. Windchill Dew Point Humidity Wind Precip. Elev Updated Type
                   

Watches & Warnings

There are currently no watches in effect.